createdAt,value
2023-03-29T00:00:22.393Z,101259.09
2023-03-29T00:05:49.073Z,101258.16
2023-03-29T00:10:59.475Z,101259.56
2023-03-29T00:16:07.963Z,101256.16
2023-03-29T00:21:14.285Z,101258.59
2023-03-29T00:26:22.146Z,101262.84
2023-03-29T00:31:29.831Z,101261.88
2023-03-29T00:36:36.645Z,101265.38
2023-03-29T00:41:45.745Z,101261.84
2023-03-29T00:46:52.517Z,101266.94
2023-03-29T00:51:59.362Z,101279.66
2023-03-29T00:57:09.769Z,101270.31
2023-03-29T01:02:18.283Z,101265.97
2023-03-29T01:07:28.709Z,101268.47
2023-03-29T01:12:42.825Z,101260.56
2023-03-29T01:17:51.077Z,101256.22
2023-03-29T01:23:19.486Z,101259.66
2023-03-29T01:28:33.432Z,101261.38
2023-03-29T01:33:45.524Z,101262.97
2023-03-29T01:38:57.573Z,101263.78
2023-03-29T01:44:11.008Z,101257.69
2023-03-29T01:49:24.984Z,101255.06
2023-03-29T01:54:37.115Z,101258.41
2023-03-29T01:59:48.943Z,101256.59
2023-03-29T02:04:57.838Z,101256.47
2023-03-29T02:10:05.436Z,101258.03
2023-03-29T02:15:19.561Z,101266.59
2023-03-29T02:20:32.320Z,101266.44
2023-03-29T02:25:38.963Z,101275.66
2023-03-29T02:30:53.808Z,101272.94
2023-03-29T02:36:05.136Z,101270.31
2023-03-29T02:42:30.817Z,101273.03
2023-03-29T02:47:45.870Z,101274.44
2023-03-29T02:52:59.629Z,101272.63
2023-03-29T02:58:08.949Z,101279.38
2023-03-29T03:03:18.383Z,101274.19
2023-03-29T03:08:28.309Z,101281.88
2023-03-29T03:13:34.870Z,101287.88
2023-03-29T03:18:43.414Z,101288.50
2023-03-29T03:23:50.715Z,101277.34
2023-03-29T03:28:57.561Z,101286.81
2023-03-29T03:34:26.590Z,101287.56
2023-03-29T03:39:37.098Z,101297.91
2023-03-29T03:44:45.817Z,101298.09
2023-03-29T03:50:14.401Z,101297.22
2023-03-29T03:55:22.373Z,101303.03
2023-03-29T04:00:31.940Z,101305.56
2023-03-29T04:06:05.307Z,101316.59
2023-03-29T04:11:32.273Z,101322.34
2023-03-29T04:16:38.824Z,101326.69
2023-03-29T04:22:09.737Z,101320.56
2023-03-29T04:27:16.895Z,101315.25
2023-03-29T04:32:25.667Z,101318.38
2023-03-29T04:37:40.645Z,101319.34
2023-03-29T04:42:50.105Z,101311.63
2023-03-29T04:48:03.125Z,101314.78
2023-03-29T04:53:11.777Z,101315.78
2023-03-29T04:58:20.773Z,101313.34
2023-03-29T05:03:29.628Z,101312.50
2023-03-29T05:08:42.878Z,101318.63
2023-03-29T05:14:02.755Z,101307.72
2023-03-29T05:19:13.377Z,101318.25
2023-03-29T05:24:26.643Z,101312.03
2023-03-29T05:29:37.091Z,101307.47
2023-03-29T05:35:07.416Z,101315.66
2023-03-29T05:40:16.484Z,101320.22
2023-03-29T05:45:45.093Z,101316.38
2023-03-29T05:50:56.565Z,101314.03
2023-03-29T05:56:05.512Z,101321.16
2023-03-29T06:01:14.898Z,101313.06
2023-03-29T06:06:34.348Z,101323.00
2023-03-29T06:11:42.522Z,101326.91
2023-03-29T06:17:02.080Z,101332.50
2023-03-29T06:22:08.564Z,101328.56
2023-03-29T06:27:16.361Z,101334.59
2023-03-29T06:32:23.744Z,101336.25
2023-03-29T06:37:36.774Z,101340.69
2023-03-29T06:42:59.743Z,101338.25
2023-03-29T06:48:24.752Z,101338.44
2023-03-29T06:53:31.739Z,101337.72
2023-03-29T06:58:42.996Z,101332.81
2023-03-29T07:04:09.703Z,101341.78
2023-03-29T07:09:36.254Z,101345.34
2023-03-29T07:15:13.730Z,101350.59
2023-03-29T07:20:47.932Z,101342.47
2023-03-29T07:25:54.810Z,101346.06
2023-03-29T07:31:07.764Z,101346.22
2023-03-29T07:36:19.989Z,101337.06
2023-03-29T07:41:26.998Z,101334.72
2023-03-29T07:46:53.109Z,101342.53
2023-03-29T07:51:59.997Z,101343.66
2023-03-29T07:57:07.145Z,101344.72
2023-03-29T08:02:21.461Z,101338.19
2023-03-29T08:07:31.278Z,101326.53
2023-03-29T08:12:40.579Z,101323.41
2023-03-29T08:17:48.970Z,101322.00
2023-03-29T08:22:57.557Z,101324.09
2023-03-29T08:28:29.964Z,101327.13
2023-03-29T08:33:38.726Z,101323.88
2023-03-29T08:39:08.336Z,101316.28
2023-03-29T08:44:25.501Z,101313.09
2023-03-29T08:49:42.275Z,101296.91
2023-03-29T08:54:54.303Z,101303.09
2023-03-29T09:00:19.504Z,101295.47
2023-03-29T09:05:32.232Z,101301.63
2023-03-29T09:10:57.646Z,101297.41
2023-03-29T09:16:14.128Z,101290.75
2023-03-29T09:21:35.487Z,101294.59
2023-03-29T09:26:48.365Z,101288.66
2023-03-29T09:32:24.092Z,101289.03
2023-03-29T09:37:42.119Z,101278.13
2023-03-29T09:42:54.016Z,101276.56
2023-03-29T09:48:08.422Z,101266.47
2023-03-29T09:53:19.006Z,101255.59
2023-03-29T09:58:36.324Z,101263.69
2023-03-29T10:03:44.010Z,101263.13
2023-03-29T10:08:59.246Z,101247.69
2023-03-29T10:14:19.503Z,101247.91
2023-03-29T10:19:31.328Z,101253.38
2023-03-29T10:24:39.320Z,101248.34
2023-03-29T10:29:47.133Z,101250.91
2023-03-29T10:34:54.630Z,101250.91
2023-03-29T10:40:02.768Z,101242.44
2023-03-29T10:45:27.483Z,101243.53
2023-03-29T10:50:38.432Z,101243.53
2023-03-29T10:55:57.705Z,101223.91
2023-03-29T11:01:05.722Z,101220.66
2023-03-29T11:06:25.024Z,101225.03
2023-03-29T11:12:14.464Z,101210.53
2023-03-29T11:17:39.830Z,101210.88
2023-03-29T11:22:57.724Z,101201.47
2023-03-29T11:28:15.652Z,101194.78
2023-03-29T11:33:48.852Z,101185.47
2023-03-29T11:39:06.182Z,101177.03
2023-03-29T11:44:21.431Z,101175.44
2023-03-29T11:49:33.837Z,101175.53
2023-03-29T11:54:45.216Z,101160.09
2023-03-29T12:00:00.830Z,101169.69
2023-03-29T12:05:18.324Z,101161.09
2023-03-29T12:10:28.649Z,101146.47
2023-03-29T12:15:43.002Z,101138.78
2023-03-29T12:20:55.229Z,101134.53
2023-03-29T12:26:12.361Z,101137.16
2023-03-29T12:31:29.467Z,101122.53
2023-03-29T12:37:22.329Z,101117.38
2023-03-29T12:42:49.746Z,101108.81
2023-03-29T12:48:21.083Z,101111.44
2023-03-29T12:53:33.382Z,101108.00
2023-03-29T12:59:08.529Z,101104.59
2023-03-29T13:04:20.821Z,101097.69
2023-03-29T13:09:30.221Z,101096.84
2023-03-29T13:14:39.408Z,101077.84
2023-03-29T13:19:51.078Z,101081.31
2023-03-29T13:25:25.657Z,101079.59
2023-03-29T13:30:47.511Z,101076.19
2023-03-29T13:36:05.094Z,101069.25
2023-03-29T13:41:30.265Z,101061.47
2023-03-29T13:46:43.215Z,101060.63
2023-03-29T13:52:16.718Z,101052.81
2023-03-29T13:57:27.668Z,101050.25
2023-03-29T14:02:42.481Z,101054.56
2023-03-29T14:07:55.067Z,101038.16
2023-03-29T14:13:04.356Z,101042.44
2023-03-29T14:18:12.524Z,101045.94
2023-03-29T14:23:24.470Z,101045.06
2023-03-29T14:28:31.552Z,101038.16
2023-03-29T14:33:38.474Z,101039.84
2023-03-29T14:38:50.353Z,101046.78
2023-03-29T14:43:57.866Z,101040.72
2023-03-29T14:49:06.602Z,101032.09
2023-03-29T14:54:22.428Z,101026.91
2023-03-29T14:59:36.971Z,101020.84
2023-03-29T15:04:43.931Z,101011.31
2023-03-29T15:09:52.127Z,101007.00
2023-03-29T15:14:58.826Z,101013.03
2023-03-29T15:20:14.368Z,101006.13
2023-03-29T15:25:23.674Z,101000.09
2023-03-29T15:30:39.659Z,100995.78
2023-03-29T15:35:52.235Z,101002.69
2023-03-29T15:41:00.867Z,100995.75
2023-03-29T15:46:08.684Z,100994.03
2023-03-29T15:51:15.940Z,100987.94
2023-03-29T15:56:23.982Z,100981.91
2023-03-29T16:01:36.072Z,100980.19
2023-03-29T16:06:43.763Z,100966.38
2023-03-29T16:11:52.427Z,100961.19
2023-03-29T16:16:59.651Z,100962.94
2023-03-29T16:22:07.747Z,100957.75
2023-03-29T16:27:15.669Z,100951.72
2023-03-29T16:32:22.437Z,100953.50
2023-03-29T16:37:29.114Z,100953.47
2023-03-29T16:42:37.938Z,100943.97
2023-03-29T16:47:46.121Z,100941.38
2023-03-29T16:52:52.978Z,100929.31
2023-03-29T16:58:01.126Z,100940.50
2023-03-29T17:03:08.447Z,100939.63
2023-03-29T17:08:16.376Z,100932.72
2023-03-29T17:13:24.648Z,100938.75
2023-03-29T17:18:32.009Z,100940.47
2023-03-29T17:23:39.323Z,100946.47
2023-03-29T17:28:49.908Z,100950.78
2023-03-29T17:33:57.233Z,100943.81
2023-03-29T17:39:10.032Z,100947.22
2023-03-29T17:44:19.191Z,100952.34
2023-03-29T17:49:28.113Z,100956.59
2023-03-29T17:54:36.509Z,100967.75
2023-03-29T17:59:45.858Z,100959.94
2023-03-29T18:04:54.163Z,100953.84
2023-03-29T18:10:03.321Z,100946.88
2023-03-29T18:15:14.968Z,100952.88
2023-03-29T18:20:24.604Z,100953.66
2023-03-29T18:25:32.608Z,100951.00
2023-03-29T18:30:43.738Z,100955.25
2023-03-29T18:35:53.445Z,100959.47
2023-03-29T18:41:02.296Z,100956.84
2023-03-29T18:46:15.078Z,100960.22
2023-03-29T18:51:24.637Z,100954.13
2023-03-29T18:56:34.868Z,100961.88
2023-03-29T19:01:46.565Z,100959.22
2023-03-29T19:06:56.487Z,100956.56
2023-03-29T19:12:06.580Z,100956.47
2023-03-29T19:17:17.787Z,100955.59
2023-03-29T19:22:26.766Z,100953.03
2023-03-29T19:27:37.584Z,100947.00
2023-03-29T19:32:49.629Z,100942.66
2023-03-29T19:38:02.338Z,100938.38
2023-03-29T19:43:18.407Z,100932.34
2023-03-29T19:48:30.484Z,100924.56
2023-03-29T19:53:41.897Z,100928.00
2023-03-29T19:58:50.010Z,100917.66
2023-03-29T20:04:00.179Z,100907.34
2023-03-29T20:09:09.594Z,100894.38
2023-03-29T20:14:17.935Z,100896.88
2023-03-29T20:19:30.630Z,100895.09
2023-03-29T20:24:38.581Z,100892.44
2023-03-29T20:29:46.188Z,100889.78
2023-03-29T20:34:54.640Z,100884.53
2023-03-29T20:40:01.208Z,100885.31
2023-03-29T20:45:18.899Z,100875.75
2023-03-29T20:50:27.898Z,100875.63
2023-03-29T20:55:35.691Z,100871.28
2023-03-29T21:00:42.778Z,100868.56
2023-03-29T21:05:55.053Z,100864.19
2023-03-29T21:11:02.670Z,100870.00
2023-03-29T21:16:11.161Z,100864.66
2023-03-29T21:21:19.649Z,100858.44
2023-03-29T21:26:26.744Z,100849.81
2023-03-29T21:31:33.696Z,100847.25
2023-03-29T21:36:42.817Z,100839.38
2023-03-29T21:41:48.918Z,100833.31
2023-03-29T21:46:55.642Z,100824.69
2023-03-29T21:52:04.010Z,100825.56
2023-03-29T21:57:10.691Z,100816.88
2023-03-29T22:02:17.830Z,100827.06
2023-03-29T22:07:25.835Z,100818.47
2023-03-29T22:12:34.798Z,100810.81
2023-03-29T22:17:43.116Z,100816.91
2023-03-29T22:22:52.584Z,100813.50
2023-03-29T22:27:59.079Z,100815.22
2023-03-29T22:33:05.616Z,100801.50
2023-03-29T22:38:13.666Z,100789.53
2023-03-29T22:43:20.343Z,100797.28
2023-03-29T22:48:27.088Z,100791.25
2023-03-29T22:53:35.564Z,100781.91
2023-03-29T22:58:42.106Z,100774.25
2023-03-29T23:03:50.054Z,100774.34
2023-03-29T23:08:58.106Z,100781.28
2023-03-29T23:14:05.494Z,100779.56
2023-03-29T23:19:12.217Z,100777.06
2023-03-29T23:24:20.139Z,100765.03
2023-03-29T23:29:26.652Z,100757.31
2023-03-29T23:34:33.546Z,100753.03
2023-03-29T23:39:41.985Z,100755.66
2023-03-29T23:44:48.660Z,100754.84
2023-03-29T23:49:55.351Z,100753.16
2023-03-29T23:55:03.446Z,100749.72
